createdAt,value
2017-09-28T00:00:24.429Z,1018.9
2017-09-28T00:01:27.129Z,1019
2017-09-28T00:02:29.523Z,1019
2017-09-28T00:03:31.903Z,1019
2017-09-28T00:04:34.282Z,1018.9
2017-09-28T00:05:36.666Z,1018.9
2017-09-28T00:06:39.039Z,1018.9
2017-09-28T00:07:41.421Z,1019
2017-09-28T00:08:43.803Z,1018.9
2017-09-28T00:09:46.173Z,1019
2017-09-28T00:10:48.549Z,1018.9
2017-09-28T00:11:50.942Z,1018.9
2017-09-28T00:12:53.324Z,1019
2017-09-28T00:13:55.706Z,1019
2017-09-28T00:14:58.091Z,1018.9
2017-09-28T00:16:00.476Z,1019
2017-09-28T00:17:03.208Z,1018.9
2017-09-28T00:18:05.586Z,1018.9
2017-09-28T00:19:07.965Z,1018.9
2017-09-28T00:20:10.693Z,1018.9
2017-09-28T00:21:13.083Z,1018.9
2017-09-28T00:22:15.806Z,1018.9
2017-09-28T00:23:18.182Z,1018.9
2017-09-28T00:24:20.564Z,1018.9
2017-09-28T00:25:22.943Z,1018.9
2017-09-28T00:26:25.326Z,1018.8
2017-09-28T00:27:27.705Z,1018.9
2017-09-28T00:28:30.078Z,1018.9
2017-09-28T00:29:32.467Z,1018.8
2017-09-28T00:30:34.888Z,1018.9
2017-09-28T00:31:37.284Z,1018.8
2017-09-28T00:32:39.661Z,1018.8
2017-09-28T00:33:42.037Z,1018.9
2017-09-28T00:34:44.434Z,1018.9
2017-09-28T00:35:46.803Z,1018.9
2017-09-28T00:36:49.185Z,1018.8
2017-09-28T00:37:51.565Z,1018.9
2017-09-28T00:38:53.946Z,1018.9
2017-09-28T00:39:56.677Z,1018.9
2017-09-28T00:40:59.079Z,1019
2017-09-28T00:42:01.468Z,1019
2017-09-28T00:43:03.864Z,1019
2017-09-28T00:44:06.274Z,1019
2017-09-28T00:45:08.662Z,1019
2017-09-28T00:46:11.073Z,1019
2017-09-28T00:47:13.475Z,1019
2017-09-28T00:48:15.861Z,1019
2017-09-28T00:49:18.265Z,1019
2017-09-28T00:50:20.655Z,1019
2017-09-28T00:51:23.051Z,1019
2017-09-28T00:52:25.477Z,1019
2017-09-28T00:53:27.847Z,1019
2017-09-28T00:54:30.260Z,1019
2017-09-28T00:55:32.650Z,1019
2017-09-28T00:56:35.377Z,1019
2017-09-28T00:57:37.767Z,1019
2017-09-28T00:58:40.295Z,1019
2017-09-28T00:59:42.682Z,1019
2017-09-28T01:00:45.073Z,1019
2017-09-28T01:01:47.470Z,1019
2017-09-28T01:02:49.854Z,1018.9
2017-09-28T01:03:52.239Z,1019
2017-09-28T01:04:54.625Z,1019
2017-09-28T01:05:57.384Z,1019
2017-09-28T01:06:59.750Z,1019
2017-09-28T01:08:02.134Z,1019
2017-09-28T01:09:04.521Z,1019
2017-09-28T01:10:06.909Z,1019
2017-09-28T01:11:09.652Z,1019
2017-09-28T01:12:12.032Z,1019
2017-09-28T01:13:14.423Z,1019
2017-09-28T01:14:16.802Z,1019
2017-09-28T01:15:19.179Z,1019
2017-09-28T01:16:21.559Z,1019
2017-09-28T01:17:23.947Z,1018.9
2017-09-28T01:18:26.316Z,1018.9
2017-09-28T01:19:28.697Z,1018.9
2017-09-28T01:20:31.085Z,1018.9
2017-09-28T01:21:33.466Z,1018.9
2017-09-28T01:22:35.846Z,1018.9
2017-09-28T01:23:38.233Z,1018.8
2017-09-28T01:24:40.615Z,1018.8
2017-09-28T01:25:43.351Z,1018.8
2017-09-28T01:26:45.734Z,1018.8
2017-09-28T01:27:48.101Z,1018.8
2017-09-28T01:28:50.483Z,1018.8
2017-09-28T01:29:52.867Z,1018.8
2017-09-28T01:30:55.251Z,1018.8
2017-09-28T01:31:57.634Z,1018.8
2017-09-28T01:33:00.007Z,1018.8
2017-09-28T01:34:02.397Z,1018.7
2017-09-28T01:35:04.775Z,1018.7
2017-09-28T01:36:07.164Z,1018.7
2017-09-28T01:37:09.545Z,1018.7
2017-09-28T01:38:12.293Z,1018.7
2017-09-28T01:39:15.014Z,1018.8
2017-09-28T01:40:17.400Z,1018.8
2017-09-28T01:41:19.776Z,1018.7
2017-09-28T01:42:22.151Z,1018.7
2017-09-28T01:43:24.534Z,1018.7
2017-09-28T01:44:26.911Z,1018.7
2017-09-28T01:45:29.284Z,1018.8
2017-09-28T01:46:31.665Z,1018.7
2017-09-28T01:47:34.046Z,1018.7
2017-09-28T01:48:36.765Z,1018.8
2017-09-28T01:49:39.147Z,1018.7
2017-09-28T01:50:41.530Z,1018.7
2017-09-28T01:51:43.898Z,1018.7
2017-09-28T01:52:46.297Z,1018.7
2017-09-28T01:53:48.672Z,1018.7
2017-09-28T01:54:51.057Z,1018.7
2017-09-28T01:55:53.433Z,1018.7
2017-09-28T01:56:55.807Z,1018.7
2017-09-28T01:57:58.184Z,1018.7
2017-09-28T01:59:00.570Z,1018.7
2017-09-28T02:00:02.941Z,1018.7
2017-09-28T02:01:05.318Z,1018.7
2017-09-28T02:02:07.698Z,1018.7
2017-09-28T02:03:10.077Z,1018.7
2017-09-28T02:04:12.450Z,1018.6
2017-09-28T02:05:14.833Z,1018.6
2017-09-28T02:06:17.217Z,1018.6
2017-09-28T02:07:19.932Z,1018.6
2017-09-28T02:08:22.323Z,1018.6
2017-09-28T02:09:24.700Z,1018.6
2017-09-28T02:10:27.425Z,1018.6
2017-09-28T02:11:29.811Z,1018.6
2017-09-28T02:12:32.189Z,1018.6
2017-09-28T02:13:34.910Z,1018.6
2017-09-28T02:14:37.288Z,1018.6
2017-09-28T02:15:39.657Z,1018.6
2017-09-28T02:16:42.027Z,1018.6
2017-09-28T02:17:44.769Z,1018.6
2017-09-28T02:18:47.153Z,1018.6
2017-09-28T02:19:49.535Z,1018.6
2017-09-28T02:20:51.913Z,1018.6
2017-09-28T02:21:54.304Z,1018.7
2017-09-28T02:22:56.691Z,1018.6
2017-09-28T02:23:59.070Z,1018.6
2017-09-28T02:25:01.442Z,1018.6
2017-09-28T02:26:03.819Z,1018.7
2017-09-28T02:27:06.213Z,1018.7
2017-09-28T02:28:08.583Z,1018.7
2017-09-28T02:29:10.957Z,1018.7
2017-09-28T02:30:13.342Z,1018.7
2017-09-28T02:31:15.737Z,1018.7
2017-09-28T02:32:18.106Z,1018.6
2017-09-28T02:33:20.488Z,1018.6
2017-09-28T02:34:23.216Z,1018.6
2017-09-28T02:35:25.595Z,1018.7
2017-09-28T02:36:27.975Z,1018.6
2017-09-28T02:37:30.354Z,1018.6
2017-09-28T02:38:32.725Z,1018.6
2017-09-28T02:39:35.119Z,1018.6
2017-09-28T02:40:37.498Z,1018.6
2017-09-28T02:41:39.866Z,1018.6
2017-09-28T02:42:42.254Z,1018.6
2017-09-28T02:43:44.628Z,1018.6
2017-09-28T02:44:47.351Z,1018.6
2017-09-28T02:45:49.727Z,1018.6
2017-09-28T02:46:52.107Z,1018.6
2017-09-28T02:47:54.495Z,1018.5
2017-09-28T02:48:56.884Z,1018.5
2017-09-28T02:49:59.270Z,1018.5
2017-09-28T02:51:01.635Z,1018.5
2017-09-28T02:52:04.022Z,1018.5
2017-09-28T02:53:06.399Z,1018.5
2017-09-28T02:54:08.788Z,1018.5
2017-09-28T02:55:11.156Z,1018.4
2017-09-28T02:56:13.530Z,1018.4
2017-09-28T02:57:16.245Z,1018.4
2017-09-28T02:58:18.972Z,1018.4
2017-09-28T02:59:21.350Z,1018.4
2017-09-28T03:00:23.722Z,1018.4
2017-09-28T03:01:26.104Z,1018.5
2017-09-28T03:02:28.490Z,1018.4
2017-09-28T03:03:30.857Z,1018.5
2017-09-28T03:04:33.236Z,1018.5
2017-09-28T03:05:35.628Z,1018.4
2017-09-28T03:06:37.997Z,1018.4
2017-09-28T03:07:40.384Z,1018.4
2017-09-28T03:08:42.763Z,1018.5
2017-09-28T03:09:45.146Z,1018.5
2017-09-28T03:10:47.869Z,1018.4
2017-09-28T03:11:50.251Z,1018.4
2017-09-28T03:12:52.617Z,1018.5
2017-09-28T03:13:55.014Z,1018.4
2017-09-28T03:14:57.718Z,1018.5
2017-09-28T03:16:00.107Z,1018.5
2017-09-28T03:17:02.489Z,1018.5
2017-09-28T03:18:04.869Z,1018.5
2017-09-28T03:19:07.594Z,1018.5
2017-09-28T03:20:09.972Z,1018.5
2017-09-28T03:21:12.351Z,1018.5
2017-09-28T03:22:14.734Z,1018.6
2017-09-28T03:23:17.100Z,1018.6
2017-09-28T03:24:19.489Z,1018.5
2017-09-28T03:25:21.880Z,1018.5
2017-09-28T03:26:24.264Z,1018.6
2017-09-28T03:27:26.677Z,1018.6
2017-09-28T03:28:29.061Z,1018.5
2017-09-28T03:29:31.469Z,1018.5
2017-09-28T03:30:33.870Z,1018.5
2017-09-28T03:31:36.268Z,1018.5
2017-09-28T03:32:39.322Z,1018.4
2017-09-28T03:33:41.710Z,1018.5
2017-09-28T03:34:44.089Z,1018.5
2017-09-28T03:35:46.472Z,1018.5
2017-09-28T03:36:48.857Z,1018.5
2017-09-28T03:37:51.272Z,1018.4
2017-09-28T03:38:53.690Z,1018.5
2017-09-28T03:39:56.065Z,1018.5
2017-09-28T03:40:58.782Z,1018.4
2017-09-28T03:42:01.165Z,1018.5
2017-09-28T03:43:03.537Z,1018.5
2017-09-28T03:44:05.918Z,1018.5
2017-09-28T03:45:08.296Z,1018.5
2017-09-28T03:46:10.711Z,1018.5
2017-09-28T03:47:13.089Z,1018.5
2017-09-28T03:48:15.482Z,1018.5
2017-09-28T03:49:17.879Z,1018.6
2017-09-28T03:50:20.252Z,1018.5
2017-09-28T03:51:22.657Z,1018.5
2017-09-28T03:52:25.037Z,1018.5
2017-09-28T03:53:27.439Z,1018.5
2017-09-28T03:54:29.847Z,1018.4
2017-09-28T03:55:32.234Z,1018.4
2017-09-28T03:56:34.649Z,1018.5
2017-09-28T03:57:37.039Z,1018.5
2017-09-28T03:58:39.753Z,1018.4
2017-09-28T03:59:42.132Z,1018.4
2017-09-28T04:00:44.565Z,1018.4
2017-09-28T04:01:46.973Z,1018.4
2017-09-28T04:02:49.356Z,1018.5
2017-09-28T04:03:51.772Z,1018.4
2017-09-28T04:04:54.145Z,1018.4
2017-09-28T04:05:56.538Z,1018.3
2017-09-28T04:06:58.917Z,1018.4
2017-09-28T04:08:01.295Z,1018.3
2017-09-28T04:09:03.671Z,1018.3
2017-09-28T04:10:06.044Z,1018.3
2017-09-28T04:11:08.417Z,1018.4
2017-09-28T04:12:10.791Z,1018.4
2017-09-28T04:13:13.173Z,1018.4
2017-09-28T04:14:15.558Z,1018.4
2017-09-28T04:15:17.940Z,1018.3
2017-09-28T04:16:20.322Z,1018.4
2017-09-28T04:17:23.045Z,1018.4
2017-09-28T04:18:25.420Z,1018.3
2017-09-28T04:19:27.799Z,1018.3
2017-09-28T04:20:30.183Z,1018.3
2017-09-28T04:21:32.549Z,1018.3
2017-09-28T04:22:35.611Z,1018.3
2017-09-28T04:23:37.984Z,1018.2
2017-09-28T04:24:40.368Z,1018.2
2017-09-28T04:25:42.754Z,1018.2
2017-09-28T04:26:45.129Z,1018.2
2017-09-28T04:27:47.509Z,1018.2
2017-09-28T04:28:49.885Z,1018.2
2017-09-28T04:29:52.595Z,1018.3
2017-09-28T04:30:54.989Z,1018.2
2017-09-28T04:31:57.370Z,1018.2
2017-09-28T04:32:59.750Z,1018.2
2017-09-28T04:34:02.129Z,1018.2
2017-09-28T04:35:04.851Z,1018.3
2017-09-28T04:36:07.233Z,1018.2
2017-09-28T04:37:09.645Z,1018.2
2017-09-28T04:38:12.346Z,1018.2
2017-09-28T04:39:14.725Z,1018.2
2017-09-28T04:40:17.110Z,1018.1
2017-09-28T04:41:19.828Z,1018.1
2017-09-28T04:42:22.217Z,1018.1
2017-09-28T04:43:24.591Z,1018.1
2017-09-28T04:44:26.970Z,1018.2
2017-09-28T04:45:29.353Z,1018.2
2017-09-28T04:46:31.728Z,1018.2
2017-09-28T04:47:34.104Z,1018.2
2017-09-28T04:48:36.485Z,1018.2
2017-09-28T04:49:38.867Z,1018.2
2017-09-28T04:50:41.250Z,1018.3
2017-09-28T04:51:43.636Z,1018.3
2017-09-28T04:52:46.007Z,1018.3
2017-09-28T04:53:48.388Z,1018.3
2017-09-28T04:54:50.775Z,1018.4
2017-09-28T04:55:53.151Z,1018.4
2017-09-28T04:56:55.535Z,1018.4
2017-09-28T04:57:57.918Z,1018.4
2017-09-28T04:59:00.292Z,1018.4
2017-09-28T05:00:02.678Z,1018.4
2017-09-28T05:01:05.062Z,1018.5
2017-09-28T05:02:07.453Z,1018.5
2017-09-28T05:03:10.187Z,1018.5
2017-09-28T05:04:12.555Z,1018.5
2017-09-28T05:05:14.934Z,1018.5
2017-09-28T05:06:17.306Z,1018.5
2017-09-28T05:07:19.686Z,1018.5
2017-09-28T05:08:22.063Z,1018.5
2017-09-28T05:09:24.438Z,1018.5
2017-09-28T05:10:26.818Z,1018.6
2017-09-28T05:11:29.208Z,1018.5
2017-09-28T05:12:31.586Z,1018.6
2017-09-28T05:13:33.966Z,1018.7
2017-09-28T05:14:36.346Z,1018.6
2017-09-28T05:15:38.719Z,1018.6
2017-09-28T05:16:41.106Z,1018.6
2017-09-28T05:17:43.487Z,1018.6
2017-09-28T05:18:45.855Z,1018.7
2017-09-28T05:19:48.246Z,1018.7
2017-09-28T05:20:50.629Z,1018.7
2017-09-28T05:21:53.013Z,1018.7
2017-09-28T05:22:55.385Z,1018.8
2017-09-28T05:23:57.761Z,1018.8
2017-09-28T05:25:00.135Z,1018.8
2017-09-28T05:26:02.531Z,1018.8
2017-09-28T05:27:04.902Z,1018.8
2017-09-28T05:28:07.295Z,1018.8
2017-09-28T05:29:10.050Z,1018.8
2017-09-28T05:30:12.393Z,1018.9
2017-09-28T05:31:14.774Z,1018.9
2017-09-28T05:32:17.155Z,1018.8
2017-09-28T05:33:19.531Z,1018.9
2017-09-28T05:34:21.911Z,1018.8
2017-09-28T05:35:24.280Z,1018.8
2017-09-28T05:36:26.661Z,1018.9
2017-09-28T05:37:29.058Z,1018.8
2017-09-28T05:38:31.438Z,1018.8
2017-09-28T05:39:33.819Z,1018.8
2017-09-28T05:40:36.198Z,1018.8
2017-09-28T05:41:38.578Z,1018.7
2017-09-28T05:42:40.973Z,1018.7
2017-09-28T05:43:43.693Z,1018.7
2017-09-28T05:44:46.059Z,1018.7
2017-09-28T05:45:48.449Z,1018.7
2017-09-28T05:46:50.818Z,1018.7
2017-09-28T05:47:53.198Z,1018.7
2017-09-28T05:48:55.583Z,1018.7
2017-09-28T05:49:57.950Z,1018.7
2017-09-28T05:51:00.325Z,1018.7
2017-09-28T05:52:02.715Z,1018.7
2017-09-28T05:53:05.420Z,1018.7
2017-09-28T05:54:07.794Z,1018.7
2017-09-28T05:55:10.178Z,1018.7
2017-09-28T05:56:12.562Z,1018.7
2017-09-28T05:57:14.936Z,1018.6
2017-09-28T05:58:17.319Z,1018.7
2017-09-28T05:59:19.705Z,1018.7
2017-09-28T06:00:22.438Z,1018.6
2017-09-28T06:01:25.161Z,1018.6
2017-09-28T06:02:27.530Z,1018.7
2017-09-28T06:03:29.908Z,1018.7
2017-09-28T06:04:32.290Z,1018.7
2017-09-28T06:05:34.667Z,1018.7
2017-09-28T06:06:37.046Z,1018.7
2017-09-28T06:07:39.426Z,1018.7
2017-09-28T06:08:41.809Z,1018.7
2017-09-28T06:09:44.203Z,1018.7
2017-09-28T06:10:46.573Z,1018.7
2017-09-28T06:11:48.954Z,1018.8
2017-09-28T06:12:51.343Z,1018.8
2017-09-28T06:13:53.730Z,1018.9
2017-09-28T06:14:56.110Z,1018.9
2017-09-28T06:15:58.492Z,1019
2017-09-28T06:17:00.868Z,1018.9
2017-09-28T06:18:03.258Z,1018.9
2017-09-28T06:19:05.633Z,1018.9
2017-09-28T06:20:08.016Z,1018.8
2017-09-28T06:21:10.391Z,1018.8
2017-09-28T06:22:12.770Z,1018.8
2017-09-28T06:23:15.161Z,1018.8
2017-09-28T06:24:17.577Z,1018.9
2017-09-28T06:25:19.914Z,1018.9
2017-09-28T06:26:22.295Z,1018.9
2017-09-28T06:27:24.686Z,1018.9
2017-09-28T06:28:27.056Z,1018.9
2017-09-28T06:29:29.431Z,1019
2017-09-28T06:30:31.819Z,1019
2017-09-28T06:31:34.194Z,1019
2017-09-28T06:32:36.569Z,1019
2017-09-28T06:33:38.957Z,1019
2017-09-28T06:34:41.321Z,1019
2017-09-28T06:35:43.712Z,1019
2017-09-28T06:36:46.092Z,1019
2017-09-28T06:37:48.472Z,1019
2017-09-28T06:38:50.857Z,1019
2017-09-28T06:39:53.235Z,1019
2017-09-28T06:40:55.606Z,1019
2017-09-28T06:41:58.000Z,1019
2017-09-28T06:43:00.388Z,1019
2017-09-28T06:44:02.769Z,1019
2017-09-28T06:45:05.158Z,1018.9
2017-09-28T06:46:07.532Z,1018.9
2017-09-28T06:47:09.907Z,1019
2017-09-28T06:48:12.293Z,1019
2017-09-28T06:49:14.664Z,1018.9
2017-09-28T06:50:17.046Z,1018.9
2017-09-28T06:51:19.419Z,1018.9
2017-09-28T06:52:22.479Z,1018.9
2017-09-28T06:53:24.858Z,1018.9
2017-09-28T06:54:27.247Z,1018.9
2017-09-28T06:55:29.632Z,1018.9
2017-09-28T06:56:32.008Z,1018.9
2017-09-28T06:57:34.383Z,1018.9
2017-09-28T06:58:36.767Z,1019
2017-09-28T06:59:39.146Z,1018.9
2017-09-28T07:00:41.517Z,1019
2017-09-28T07:01:43.906Z,1019
2017-09-28T07:02:46.313Z,1018.9
2017-09-28T07:03:49.086Z,1018.9
2017-09-28T07:04:51.530Z,1018.9
2017-09-28T07:05:53.963Z,1018.9
2017-09-28T07:06:56.400Z,1018.9
2017-09-28T07:07:59.207Z,1018.9
2017-09-28T07:09:01.991Z,1018.9
2017-09-28T07:10:04.431Z,1018.9
2017-09-28T07:11:06.861Z,1018.9
2017-09-28T07:12:09.298Z,1018.9
2017-09-28T07:13:12.107Z,1018.9
2017-09-28T07:14:14.544Z,1018.9
2017-09-28T07:15:16.967Z,1018.9
2017-09-28T07:16:19.409Z,1018.9
2017-09-28T07:17:21.901Z,1019
2017-09-28T07:18:24.298Z,1019
2017-09-28T07:19:26.736Z,1019
2017-09-28T07:20:29.169Z,1019
2017-09-28T07:21:31.614Z,1019.1
2017-09-28T07:22:34.059Z,1019.2
2017-09-28T07:23:36.503Z,1019.2
2017-09-28T07:24:38.929Z,1019.2
2017-09-28T07:25:41.357Z,1019.2
2017-09-28T07:26:44.147Z,1019.2
2017-09-28T07:27:46.585Z,1019.2
2017-09-28T07:28:49.017Z,1019.3
2017-09-28T07:29:51.468Z,1019.3
2017-09-28T07:30:53.915Z,1019.2
2017-09-28T07:31:56.342Z,1019.2
2017-09-28T07:32:58.794Z,1019.3
2017-09-28T07:34:01.216Z,1019.2
2017-09-28T07:35:03.999Z,1019.3
2017-09-28T07:36:06.434Z,1019.2
2017-09-28T07:37:08.871Z,1019.3
2017-09-28T07:38:11.343Z,1019.3
2017-09-28T07:39:13.782Z,1019.3
2017-09-28T07:40:16.547Z,1019.3
2017-09-28T07:41:18.986Z,1019.3
2017-09-28T07:42:21.419Z,1019.2
2017-09-28T07:43:23.857Z,1019.2
2017-09-28T07:44:26.290Z,1019.2
2017-09-28T07:45:29.076Z,1019.2
2017-09-28T07:46:31.510Z,1019.1
2017-09-28T07:47:33.961Z,1019.2
2017-09-28T07:48:36.397Z,1019.1
2017-09-28T07:49:38.876Z,1019.1
2017-09-28T07:50:41.278Z,1019
2017-09-28T07:51:43.662Z,1019.1
2017-09-28T07:52:46.411Z,1019.1
2017-09-28T07:53:49.620Z,1019.2
2017-09-28T07:54:52.011Z,1019.2
2017-09-28T07:55:54.378Z,1019.2
2017-09-28T07:56:56.777Z,1019.1
2017-09-28T07:57:59.173Z,1019.1
2017-09-28T07:59:01.903Z,1019.1
2017-09-28T08:00:04.317Z,1019.1
2017-09-28T08:01:06.738Z,1019.1
2017-09-28T08:02:09.125Z,1019.2
2017-09-28T08:03:11.527Z,1019.1
2017-09-28T08:04:13.908Z,1019.1
2017-09-28T08:05:16.295Z,1019.2
2017-09-28T08:06:18.678Z,1019.1
2017-09-28T08:07:21.071Z,1019.2
2017-09-28T08:08:23.833Z,1019.2
2017-09-28T08:09:26.210Z,1019.1
2017-09-28T08:10:28.936Z,1019.2
2017-09-28T08:11:31.327Z,1019.2
2017-09-28T08:12:33.709Z,1019.2
2017-09-28T08:13:36.101Z,1019.2
2017-09-28T08:14:38.475Z,1019.2
2017-09-28T08:15:41.194Z,1019.2
2017-09-28T08:16:43.590Z,1019.2
2017-09-28T08:17:45.986Z,1019.2
2017-09-28T08:18:48.360Z,1019.3
2017-09-28T08:19:51.091Z,1019.3
2017-09-28T08:20:53.474Z,1019.3
2017-09-28T08:21:55.870Z,1019.3
2017-09-28T08:22:58.258Z,1019.3
2017-09-28T08:24:00.627Z,1019.2
2017-09-28T08:25:03.360Z,1019.2
2017-09-28T08:26:05.740Z,1019.3
2017-09-28T08:27:08.119Z,1019.3
2017-09-28T08:28:10.502Z,1019.2
2017-09-28T08:29:12.890Z,1019.3
2017-09-28T08:30:15.269Z,1019.2
2017-09-28T08:31:17.627Z,1019.2
2017-09-28T08:32:19.985Z,1019.3
2017-09-28T08:33:22.340Z,1019.2
2017-09-28T08:34:24.697Z,1019.3
2017-09-28T08:35:27.057Z,1019.3
2017-09-28T08:36:29.414Z,1019.3
2017-09-28T08:37:31.781Z,1019.2
2017-09-28T08:38:34.140Z,1019.2
2017-09-28T08:39:36.571Z,1019.2
2017-09-28T08:40:38.927Z,1019.2
2017-09-28T08:41:41.284Z,1019.3
2017-09-28T08:42:43.642Z,1019.2
2017-09-28T08:43:45.998Z,1019.2
2017-09-28T08:44:48.361Z,1019.2
2017-09-28T08:45:51.056Z,1019.2
2017-09-28T08:46:53.413Z,1019.2
2017-09-28T08:47:55.774Z,1019.2
2017-09-28T08:48:58.134Z,1019.3
2017-09-28T08:50:00.828Z,1019.2
2017-09-28T08:51:03.186Z,1019.2
2017-09-28T08:52:05.545Z,1019.2
2017-09-28T08:53:07.902Z,1019.2
2017-09-28T08:54:10.594Z,1019.2
2017-09-28T08:55:12.954Z,1019.2
2017-09-28T08:56:15.313Z,1019.2
2017-09-28T08:57:17.673Z,1019.2
2017-09-28T08:58:20.027Z,1019.2
2017-09-28T08:59:22.384Z,1019.2
2017-09-28T09:00:25.080Z,1019.2
2017-09-28T09:01:27.441Z,1019.1
2017-09-28T09:02:29.806Z,1019.2
2017-09-28T09:03:32.160Z,1019.1
2017-09-28T09:04:34.525Z,1019.1
2017-09-28T09:05:37.214Z,1019.1
2017-09-28T09:06:39.573Z,1019.1
2017-09-28T09:07:41.940Z,1019.1
2017-09-28T09:08:44.322Z,1019
2017-09-28T09:09:47.031Z,1019.1
2017-09-28T09:10:49.391Z,1019.1
2017-09-28T09:11:52.097Z,1019.1
2017-09-28T09:12:54.475Z,1019
2017-09-28T09:13:56.836Z,1019
2017-09-28T09:14:59.331Z,1019
2017-09-28T09:16:03.190Z,1019
2017-09-28T09:17:05.556Z,1019
2017-09-28T09:18:08.706Z,1018.9
2017-09-28T09:19:11.070Z,1018.9
2017-09-28T09:20:13.433Z,1018.9
2017-09-28T09:21:15.789Z,1019
2017-09-28T09:22:18.148Z,1019
2017-09-28T09:23:20.525Z,1019
2017-09-28T09:24:22.885Z,1019
2017-09-28T09:25:25.249Z,1019
2017-09-28T09:26:27.955Z,1019
2017-09-28T09:27:30.330Z,1019
2017-09-28T09:28:32.698Z,1019
2017-09-28T09:29:35.058Z,1018.9
2017-09-28T09:30:37.419Z,1019
2017-09-28T09:31:39.822Z,1019
2017-09-28T09:32:42.179Z,1019
2017-09-28T09:33:44.542Z,1019
2017-09-28T09:34:46.919Z,1018.9
2017-09-28T09:35:49.279Z,1018.9
2017-09-28T09:36:51.659Z,1018.9
2017-09-28T09:37:54.025Z,1018.9
2017-09-28T09:38:56.387Z,1018.9
2017-09-28T09:39:58.751Z,1018.9
2017-09-28T09:41:01.110Z,1018.9
2017-09-28T09:42:03.472Z,1018.9
2017-09-28T09:43:06.191Z,1018.9
2017-09-28T09:44:08.559Z,1018.9
2017-09-28T09:45:11.259Z,1019
2017-09-28T09:46:13.619Z,1018.9
2017-09-28T09:47:15.980Z,1018.9
2017-09-28T09:48:18.343Z,1018.9
2017-09-28T09:49:20.707Z,1019
2017-09-28T09:50:23.067Z,1018.9
2017-09-28T09:51:25.430Z,1018.9
2017-09-28T09:52:27.790Z,1018.9
2017-09-28T09:53:30.149Z,1018.9
2017-09-28T09:54:32.510Z,1018.8
2017-09-28T09:55:34.870Z,1018.9
2017-09-28T09:56:37.228Z,1018.9
2017-09-28T09:57:39.592Z,1018.8
2017-09-28T09:58:41.955Z,1018.8
2017-09-28T09:59:44.317Z,1018.8
2017-09-28T10:00:46.677Z,1018.7
2017-09-28T10:01:49.039Z,1018.8
2017-09-28T10:02:51.398Z,1018.8
2017-09-28T10:03:53.757Z,1018.8
2017-09-28T10:04:56.119Z,1018.7
2017-09-28T10:05:58.482Z,1018.7
2017-09-28T10:07:00.852Z,1018.7
2017-09-28T10:08:03.539Z,1018.7
2017-09-28T10:09:06.240Z,1018.7
2017-09-28T10:10:08.599Z,1018.7
2017-09-28T10:11:10.958Z,1018.7
2017-09-28T10:12:13.321Z,1018.7
2017-09-28T10:13:15.683Z,1018.6
2017-09-28T10:14:18.044Z,1018.6
2017-09-28T10:15:20.403Z,1018.7
2017-09-28T10:16:22.765Z,1018.6
2017-09-28T10:17:25.125Z,1018.6
2017-09-28T10:18:27.487Z,1018.6
2017-09-28T10:19:29.848Z,1018.6
2017-09-28T10:20:32.208Z,1018.6
2017-09-28T10:21:34.572Z,1018.7
2017-09-28T10:22:36.931Z,1018.6
2017-09-28T10:23:39.295Z,1018.6
2017-09-28T10:24:43.184Z,1018.6
2017-09-28T10:25:45.875Z,1018.5
2017-09-28T10:26:48.236Z,1018.6
2017-09-28T10:27:50.672Z,1018.6
2017-09-28T10:28:53.033Z,1018.7
2017-09-28T10:29:55.392Z,1018.7
2017-09-28T10:30:57.954Z,1018.7
2017-09-28T10:32:01.975Z,1018.7
2017-09-28T10:33:04.468Z,1018.7
2017-09-28T10:34:06.831Z,1018.6
2017-09-28T10:35:09.193Z,1018.6
2017-09-28T10:36:11.561Z,1018.7
2017-09-28T10:37:13.925Z,1018.7
2017-09-28T10:38:16.426Z,1018.7
2017-09-28T10:39:18.790Z,1018.7
2017-09-28T10:40:21.495Z,1018.8
2017-09-28T10:41:24.241Z,1018.8
2017-09-28T10:42:26.573Z,1018.8
2017-09-28T10:43:28.938Z,1018.8
2017-09-28T10:44:31.303Z,1018.8
2017-09-28T10:45:34.008Z,1018.8
2017-09-28T10:46:36.425Z,1018.8
2017-09-28T10:47:38.793Z,1018.8
2017-09-28T10:48:41.153Z,1018.8
2017-09-28T10:49:43.519Z,1018.7
2017-09-28T10:50:45.880Z,1018.7
2017-09-28T10:51:48.246Z,1018.7
2017-09-28T10:52:50.610Z,1018.7
2017-09-28T10:53:53.052Z,1018.7
2017-09-28T10:54:55.399Z,1018.7
2017-09-28T10:55:57.792Z,1018.8
2017-09-28T10:57:00.211Z,1018.7
2017-09-28T10:58:02.574Z,1018.8
2017-09-28T10:59:05.363Z,1018.8
2017-09-28T11:00:07.908Z,1018.8
2017-09-28T11:01:10.263Z,1018.8
2017-09-28T11:02:12.628Z,1018.8
2017-09-28T11:03:15.357Z,1018.8
2017-09-28T11:04:17.721Z,1018.8
2017-09-28T11:05:20.157Z,1018.9
2017-09-28T11:06:22.522Z,1018.8
2017-09-28T11:07:25.021Z,1018.8
2017-09-28T11:08:27.715Z,1018.8
2017-09-28T11:09:30.204Z,1018.8
2017-09-28T11:10:32.567Z,1018.8
2017-09-28T11:11:35.024Z,1018.8
2017-09-28T11:12:37.409Z,1018.7
2017-09-28T11:13:39.872Z,1018.7
2017-09-28T11:14:42.236Z,1018.7
2017-09-28T11:15:44.653Z,1018.6
2017-09-28T11:16:47.018Z,1018.7
2017-09-28T11:17:49.447Z,1018.7
2017-09-28T11:18:51.808Z,1018.7
2017-09-28T11:19:54.273Z,1018.7
2017-09-28T11:20:56.635Z,1018.7
2017-09-28T11:21:59.038Z,1018.7
2017-09-28T11:23:01.402Z,1018.7
2017-09-28T11:24:03.765Z,1018.7
2017-09-28T11:25:06.128Z,1018.6
2017-09-28T11:26:08.490Z,1018.7
2017-09-28T11:27:10.853Z,1018.7
2017-09-28T11:28:13.337Z,1018.6
2017-09-28T11:29:15.702Z,1018.6
2017-09-28T11:30:18.236Z,1018.6
2017-09-28T11:31:20.586Z,1018.6
2017-09-28T11:32:22.977Z,1018.6
2017-09-28T11:33:25.410Z,1018.6
2017-09-28T11:34:27.774Z,1018.6
2017-09-28T11:35:30.218Z,1018.5
2017-09-28T11:36:32.581Z,1018.6
2017-09-28T11:37:35.029Z,1018.6
2017-09-28T11:38:37.394Z,1018.5
2017-09-28T11:39:39.762Z,1018.5
2017-09-28T11:40:42.127Z,1018.5
2017-09-28T11:41:44.493Z,1018.5
2017-09-28T11:42:46.859Z,1018.5
2017-09-28T11:43:49.281Z,1018.5
2017-09-28T11:44:51.661Z,1018.4
2017-09-28T11:45:54.040Z,1018.4
2017-09-28T11:46:56.403Z,1018.4
2017-09-28T11:47:58.769Z,1018.4
2017-09-28T11:49:01.136Z,1018.4
2017-09-28T11:50:03.513Z,1018.4
2017-09-28T11:51:05.880Z,1018.5
2017-09-28T11:52:08.249Z,1018.4
2017-09-28T11:53:10.625Z,1018.4
2017-09-28T11:54:12.995Z,1018.4
2017-09-28T11:55:15.362Z,1018.4
2017-09-28T11:56:17.729Z,1018.4
2017-09-28T11:57:20.123Z,1018.5
2017-09-28T11:58:22.491Z,1018.5
2017-09-28T11:59:24.858Z,1018.4
2017-09-28T12:00:27.597Z,1018.4
2017-09-28T12:01:29.964Z,1018.4
2017-09-28T12:02:32.346Z,1018.4
2017-09-28T12:03:34.723Z,1018.4
2017-09-28T12:04:37.102Z,1018.3
2017-09-28T12:05:39.485Z,1018.4
2017-09-28T12:06:41.854Z,1018.4
2017-09-28T12:07:44.227Z,1018.3
2017-09-28T12:08:46.596Z,1018.4
2017-09-28T12:09:48.991Z,1018.4
2017-09-28T12:10:51.330Z,1018.4
2017-09-28T12:11:53.800Z,1018.4
2017-09-28T12:12:56.202Z,1018.4
2017-09-28T12:13:58.570Z,1018.4
2017-09-28T12:15:00.940Z,1018.3
2017-09-28T12:16:03.325Z,1018.4
2017-09-28T12:17:05.693Z,1018.4
2017-09-28T12:18:08.067Z,1018.3
2017-09-28T12:19:10.453Z,1018.3
2017-09-28T12:20:12.837Z,1018.3
2017-09-28T12:21:15.221Z,1018.3
2017-09-28T12:22:17.603Z,1018.3
2017-09-28T12:23:19.967Z,1018.2
2017-09-28T12:24:22.714Z,1018.2
2017-09-28T12:25:25.099Z,1018.2
2017-09-28T12:26:27.828Z,1018.2
2017-09-28T12:27:30.530Z,1018.2
2017-09-28T12:28:32.908Z,1018.2
2017-09-28T12:29:35.687Z,1018.3
2017-09-28T12:30:38.048Z,1018.2
2017-09-28T12:31:40.413Z,1018.3
2017-09-28T12:32:42.784Z,1018.2
2017-09-28T12:33:45.155Z,1018.2
2017-09-28T12:34:47.523Z,1018.2
2017-09-28T12:35:49.918Z,1018.3
2017-09-28T12:36:52.288Z,1018.3
2017-09-28T12:37:54.692Z,1018.3
2017-09-28T12:38:57.098Z,1018.3
2017-09-28T12:39:59.869Z,1018.3
2017-09-28T12:41:02.238Z,1018.3
2017-09-28T12:42:04.624Z,1018.3
2017-09-28T12:43:06.994Z,1018.4
2017-09-28T12:44:09.358Z,1018.4
2017-09-28T12:45:11.724Z,1018.4
2017-09-28T12:46:14.087Z,1018.4
2017-09-28T12:47:16.455Z,1018.4
2017-09-28T12:48:18.830Z,1018.4
2017-09-28T12:49:21.204Z,1018.4
2017-09-28T12:50:23.570Z,1018.4
2017-09-28T12:51:25.942Z,1018.4
2017-09-28T12:52:28.409Z,1018.4
2017-09-28T12:53:30.778Z,1018.4
2017-09-28T12:54:33.143Z,1018.4
2017-09-28T12:55:35.548Z,1018.4
2017-09-28T12:56:37.964Z,1018.4
2017-09-28T12:57:40.404Z,1018.5
2017-09-28T12:58:42.778Z,1018.4
2017-09-28T12:59:45.156Z,1018.4
2017-09-28T13:00:47.522Z,1018.4
2017-09-28T13:01:49.885Z,1018.4
2017-09-28T13:02:52.253Z,1018.4
2017-09-28T13:03:54.648Z,1018.3
2017-09-28T13:04:57.058Z,1018.4